sensor_id;sensor_type;location;lat;lon;timestamp;pressure;altitude;pressure_sealevel;temperature;humidity
55263;BME280;41125;48.752;9.168;2024-03-29T00:00:12;95118.91;;;6.31;56.82
55263;BME280;41125;48.752;9.168;2024-03-29T00:00:44;95111.31;;;6.33;56.74
55263;BME280;41125;48.752;9.168;2024-03-29T00:01:15;95115.00;;;6.37;56.59
55263;BME280;41125;48.752;9.168;2024-03-29T00:01:46;95113.59;;;6.39;56.77
55263;BME280;41125;48.752;9.168;2024-03-29T00:02:18;95112.19;;;6.42;56.75
55263;BME280;41125;48.752;9.168;2024-03-29T00:02:50;95121.53;;;6.45;56.63
55263;BME280;41125;48.752;9.168;2024-03-29T00:03:22;95118.34;;;6.43;56.96
55263;BME280;41125;48.752;9.168;2024-03-29T00:03:54;95116.28;;;6.39;56.83
55263;BME280;41125;48.752;9.168;2024-03-29T00:04:26;95119.78;;;6.40;57.07
55263;BME280;41125;48.752;9.168;2024-03-29T00:04:57;95118.19;;;6.39;56.73
55263;BME280;41125;48.752;9.168;2024-03-29T00:05:28;95118.19;;;6.39;56.90
55263;BME280;41125;48.752;9.168;2024-03-29T00:06:00;95116.59;;;6.38;57.00
55263;BME280;41125;48.752;9.168;2024-03-29T00:06:32;95117.69;;;6.37;57.13
55263;BME280;41125;48.752;9.168;2024-03-29T00:07:04;95118.78;;;6.36;57.40
55263;BME280;41125;48.752;9.168;2024-03-29T00:07:35;95118.50;;;6.37;57.09
55263;BME280;41125;48.752;9.168;2024-03-29T00:08:07;95113.09;;;6.37;57.11
55263;BME280;41125;48.752;9.168;2024-03-29T00:08:42;95111.19;;;6.38;56.88
55263;BME280;41125;48.752;9.168;2024-03-29T00:09:13;95109.59;;;6.37;57.02
55263;BME280;41125;48.752;9.168;2024-03-29T00:09:45;95105.19;;;6.41;57.24
55263;BME280;41125;48.752;9.168;2024-03-29T00:10:19;95111.38;;;6.42;56.96
55263;BME280;41125;48.752;9.168;2024-03-29T00:10:50;95109.78;;;6.41;56.96
55263;BME280;41125;48.752;9.168;2024-03-29T00:11:22;95102.00;;;6.39;56.94
55263;BME280;41125;48.752;9.168;2024-03-29T00:11:53;95104.22;;;6.37;57.31
55263;BME280;41125;48.752;9.168;2024-03-29T00:12:24;95103.91;;;6.38;57.42
55263;BME280;41125;48.752;9.168;2024-03-29T00:12:55;95105.50;;;6.39;57.53
55263;BME280;41125;48.752;9.168;2024-03-29T00:13:26;95104.41;;;6.41;57.30
55263;BME280;41125;48.752;9.168;2024-03-29T00:13:58;95109.78;;;6.41;57.38
55263;BME280;41125;48.752;9.168;2024-03-29T00:14:31;95107.41;;;6.39;57.73
55263;BME280;41125;48.752;9.168;2024-03-29T00:15:04;95106.91;;;6.37;57.87
55263;BME280;41125;48.752;9.168;2024-03-29T00:15:36;95097.25;;;6.36;57.98
55263;BME280;41125;48.752;9.168;2024-03-29T00:16:07;95097.25;;;6.36;57.87
55263;BME280;41125;48.752;9.168;2024-03-29T00:16:39;95089.97;;;6.36;57.96
55263;BME280;41125;48.752;9.168;2024-03-29T00:17:12;95088.53;;;6.39;57.32
55263;BME280;41125;48.752;9.168;2024-03-29T00:17:43;95091.25;;;6.39;57.65
55263;BME280;41125;48.752;9.168;2024-03-29T00:18:14;95081.88;;;6.36;57.22
55263;BME280;41125;48.752;9.168;2024-03-29T00:18:46;95089.78;;;6.33;57.65
55263;BME280;41125;48.752;9.168;2024-03-29T00:19:18;95094.84;;;6.34;57.61
55263;BME280;41125;48.752;9.168;2024-03-29T00:19:49;95090.56;;;6.33;57.86
55263;BME280;41125;48.752;9.168;2024-03-29T00:20:20;95093.28;;;6.33;57.81
55263;BME280;41125;48.752;9.168;2024-03-29T00:20:52;95088.69;;;6.34;58.13
55263;BME280;41125;48.752;9.168;2024-03-29T00:21:24;95090.56;;;6.33;57.64
55263;BME280;41125;48.752;9.168;2024-03-29T00:21:56;95087.88;;;6.33;57.96
55263;BME280;41125;48.752;9.168;2024-03-29T00:22:28;95097.06;;;6.32;57.72
55263;BME280;41125;48.752;9.168;2024-03-29T00:23:00;95077.09;;;6.33;57.90
55263;BME280;41125;48.752;9.168;2024-03-29T00:23:31;95089.78;;;6.33;58.11
55263;BME280;41125;48.752;9.168;2024-03-29T00:24:04;95079.31;;;6.31;58.16
55263;BME280;41125;48.752;9.168;2024-03-29T00:24:35;95082.31;;;6.30;58.10
55263;BME280;41125;48.752;9.168;2024-03-29T00:25:08;95089.28;;;6.31;58.20
55263;BME280;41125;48.752;9.168;2024-03-29T00:25:40;95077.41;;;6.32;58.38
55263;BME280;41125;48.752;9.168;2024-03-29T00:26:11;95080.09;;;6.32;58.26
55263;BME280;41125;48.752;9.168;2024-03-29T00:26:42;95086.28;;;6.32;58.01
55263;BME280;41125;48.752;9.168;2024-03-29T00:27:14;95084.87;;;6.35;57.94
55263;BME280;41125;48.752;9.168;2024-03-29T00:27:45;95079.50;;;6.35;58.17
55263;BME280;41125;48.752;9.168;2024-03-29T00:28:19;95079.19;;;6.36;58.12
55263;BME280;41125;48.752;9.168;2024-03-29T00:28:50;95067.91;;;6.34;58.33
55263;BME280;41125;48.752;9.168;2024-03-29T00:29:22;95072.03;;;6.32;58.25
55263;BME280;41125;48.752;9.168;2024-03-29T00:29:54;95063.16;;;6.31;58.13
55263;BME280;41125;48.752;9.168;2024-03-29T00:30:26;95066.62;;;6.32;58.20
55263;BME280;41125;48.752;9.168;2024-03-29T00:30:58;95067.75;;;6.31;58.10
55263;BME280;41125;48.752;9.168;2024-03-29T00:31:30;95068.84;;;6.30;58.19
55263;BME280;41125;48.752;9.168;2024-03-29T00:32:01;95069.94;;;6.29;58.56
55263;BME280;41125;48.752;9.168;2024-03-29T00:32:33;95060.47;;;6.31;58.42
55263;BME280;41125;48.752;9.168;2024-03-29T00:33:04;95056.47;;;6.29;58.47
55263;BME280;41125;48.752;9.168;2024-03-29T00:33:36;95055.37;;;6.30;58.44
55263;BME280;41125;48.752;9.168;2024-03-29T00:34:07;95053.78;;;6.29;58.45
55263;BME280;41125;48.752;9.168;2024-03-29T00:34:39;95051.09;;;6.29;58.60
55263;BME280;41125;48.752;9.168;2024-03-29T00:35:11;95044.91;;;6.28;58.72
55263;BME280;41125;48.752;9.168;2024-03-29T00:35:45;95036.03;;;6.28;58.65
55263;BME280;41125;48.752;9.168;2024-03-29T00:36:16;95044.13;;;6.28;58.44
55263;BME280;41125;48.752;9.168;2024-03-29T00:36:49;95039.84;;;6.27;58.53
55263;BME280;41125;48.752;9.168;2024-03-29T00:37:20;95041.91;;;6.30;58.71
55263;BME280;41125;48.752;9.168;2024-03-29T00:37:52;95041.91;;;6.30;58.37
55263;BME280;41125;48.752;9.168;2024-03-29T00:38:23;95042.72;;;6.30;58.75
55263;BME280;41125;48.752;9.168;2024-03-29T00:38:55;95042.22;;;6.28;59.24
55263;BME280;41125;48.752;9.168;2024-03-29T00:39:26;95043.31;;;6.27;58.90
55263;BME280;41125;48.752;9.168;2024-03-29T00:39:57;95030.66;;;6.28;58.80
55263;BME280;41125;48.752;9.168;2024-03-29T00:40:29;95034.62;;;6.30;58.63
55263;BME280;41125;48.752;9.168;2024-03-29T00:41:04;95034.00;;;6.33;58.52
55263;BME280;41125;48.752;9.168;2024-03-29T00:41:35;95031.00;;;6.35;58.46
55263;BME280;41125;48.752;9.168;2024-03-29T00:42:07;95026.09;;;6.37;58.43
55263;BME280;41125;48.752;9.168;2024-03-29T00:42:49;95031.50;;;6.37;58.61
55263;BME280;41125;48.752;9.168;2024-03-29T00:43:21;95023.41;;;6.37;58.85
55263;BME280;41125;48.752;9.168;2024-03-29T00:43:52;95018.81;;;6.37;58.71
55263;BME280;41125;48.752;9.168;2024-03-29T00:44:23;95014.41;;;6.42;58.69
55263;BME280;41125;48.752;9.168;2024-03-29T00:44:54;95020.59;;;6.42;58.43
55263;BME280;41125;48.752;9.168;2024-03-29T00:45:25;95018.38;;;6.44;58.42
55263;BME280;41125;48.752;9.168;2024-03-29T00:45:57;95019.16;;;6.45;58.92
55263;BME280;41125;48.752;9.168;2024-03-29T00:46:28;95008.22;;;6.41;58.93
55263;BME280;41125;48.752;9.168;2024-03-29T00:46:59;95007.41;;;6.41;59.18
55263;BME280;41125;48.752;9.168;2024-03-29T00:47:31;95005.84;;;6.39;59.00
55263;BME280;41125;48.752;9.168;2024-03-29T00:48:03;95007.72;;;6.39;59.19
55263;BME280;41125;48.752;9.168;2024-03-29T00:48:34;95005.03;;;6.39;58.99
55263;BME280;41125;48.752;9.168;2024-03-29T00:49:05;95005.03;;;6.39;59.17
55263;BME280;41125;48.752;9.168;2024-03-29T00:49:37;95006.44;;;6.36;59.10
55263;BME280;41125;48.752;9.168;2024-03-29T00:50:09;95011.03;;;6.36;59.39
55263;BME280;41125;48.752;9.168;2024-03-29T00:50:40;95014.84;;;6.35;59.48
55263;BME280;41125;48.752;9.168;2024-03-29T00:51:12;95004.88;;;6.35;59.45
55263;BME280;41125;48.752;9.168;2024-03-29T00:51:43;95011.03;;;6.36;59.06
55263;BME280;41125;48.752;9.168;2024-03-29T00:52:14;95011.03;;;6.36;59.50
55263;BME280;41125;48.752;9.168;2024-03-29T00:52:45;95004.06;;;6.35;59.55
55263;BME280;41125;48.752;9.168;2024-03-29T00:53:19;95002.47;;;6.34;59.53
55263;BME280;41125;48.752;9.168;2024-03-29T00:53:50;95005.66;;;6.36;59.34
55263;BME280;41125;48.752;9.168;2024-03-29T00:54:21;95014.53;;;6.36;59.47
55263;BME280;41125;48.752;9.168;2024-03-29T00:54:54;95004.06;;;6.35;59.22
55263;BME280;41125;48.752;9.168;2024-03-29T00:55:25;95011.03;;;6.36;59.43
55263;BME280;41125;48.752;9.168;2024-03-29T00:55:57;95016.44;;;6.36;59.55
55263;BME280;41125;48.752;9.168;2024-03-29T00:56:28;95023.41;;;6.37;59.69
55263;BME280;41125;48.752;9.168;2024-03-29T00:57:01;95025.00;;;6.38;59.75
55263;BME280;41125;48.752;9.168;2024-03-29T00:57:32;95031.97;;;6.39;60.01
55263;BME280;41125;48.752;9.168;2024-03-29T00:58:03;95029.59;;;6.37;60.10
55263;BME280;41125;48.752;9.168;2024-03-29T00:58:35;95029.59;;;6.37;60.05
55263;BME280;41125;48.752;9.168;2024-03-29T00:59:09;95023.41;;;6.37;60.43
55263;BME280;41125;48.752;9.168;2024-03-29T00:59:41;95025.00;;;6.38;60.15
55263;BME280;41125;48.752;9.168;2024-03-29T01:00:14;95021.38;;;6.43;59.69
55263;BME280;41125;48.752;9.168;2024-03-29T01:00:46;95023.28;;;6.42;59.12
55263;BME280;41125;48.752;9.168;2024-03-29T01:01:18;95027.56;;;6.43;59.55
55263;BME280;41125;48.752;9.168;2024-03-29T01:01:50;95027.56;;;6.43;59.54
55263;BME280;41125;48.752;9.168;2024-03-29T01:02:21;95024.06;;;6.43;59.47
55263;BME280;41125;48.752;9.168;2024-03-29T01:02:53;95025.19;;;6.42;59.54
55263;BME280;41125;48.752;9.168;2024-03-29T01:03:24;95019.31;;;6.39;59.70
55263;BME280;41125;48.752;9.168;2024-03-29T01:03:55;95021.19;;;6.39;59.67
55263;BME280;41125;48.752;9.168;2024-03-29T01:04:26;95020.41;;;6.38;59.84
55263;BME280;41125;48.752;9.168;2024-03-29T01:04:57;95029.59;;;6.37;60.14
55263;BME280;41125;48.752;9.168;2024-03-29T01:05:29;95027.22;;;6.36;59.90
55263;BME280;41125;48.752;9.168;2024-03-29T01:06:00;95026.41;;;6.35;60.03
55263;BME280;41125;48.752;9.168;2024-03-29T01:06:31;95029.09;;;6.35;59.72
55263;BME280;41125;48.752;9.168;2024-03-29T01:07:03;95034.81;;;6.34;59.93
55263;BME280;41125;48.752;9.168;2024-03-29T01:07:34;95036.69;;;6.33;59.91
55263;BME280;41125;48.752;9.168;2024-03-29T01:08:06;95041.00;;;6.34;60.08
55263;BME280;41125;48.752;9.168;2024-03-29T01:08:37;95044.00;;;6.33;60.28
55263;BME280;41125;48.752;9.168;2024-03-29T01:09:09;95035.12;;;6.32;60.44
55263;BME280;41125;48.752;9.168;2024-03-29T01:09:44;95037.00;;;6.32;60.56
55263;BME280;41125;48.752;9.168;2024-03-29T01:10:19;95041.59;;;6.31;61.07
55263;BME280;41125;48.752;9.168;2024-03-29T01:10:54;95032.72;;;6.31;60.77
55263;BME280;41125;48.752;9.168;2024-03-29T01:11:25;95038.13;;;6.31;60.46
55263;BME280;41125;48.752;9.168;2024-03-29T01:11:56;95036.53;;;6.30;60.37
55263;BME280;41125;48.752;9.168;2024-03-29T01:12:28;95031.44;;;6.28;60.44
55263;BME280;41125;48.752;9.168;2024-03-29T01:12:59;95037.63;;;6.29;60.81
55263;BME280;41125;48.752;9.168;2024-03-29T01:13:30;95035.25;;;6.27;61.05
55263;BME280;41125;48.752;9.168;2024-03-29T01:14:01;95030.66;;;6.28;60.61
55263;BME280;41125;48.752;9.168;2024-03-29T01:14:34;95027.97;;;6.28;60.80
55263;BME280;41125;48.752;9.168;2024-03-29T01:15:06;95025.25;;;6.28;60.55
55263;BME280;41125;48.752;9.168;2024-03-29T01:15:37;95029.06;;;6.27;60.82
55263;BME280;41125;48.752;9.168;2024-03-29T01:16:08;95028.56;;;6.25;60.55
55263;BME280;41125;48.752;9.168;2024-03-29T01:16:39;95019.25;;;6.22;60.86
55263;BME280;41125;48.752;9.168;2024-03-29T01:17:11;95021.16;;;6.22;60.66
55263;BME280;41125;48.752;9.168;2024-03-29T01:17:42;95021.94;;;6.22;60.92
55263;BME280;41125;48.752;9.168;2024-03-29T01:18:13;95021.16;;;6.22;60.64
55263;BME280;41125;48.752;9.168;2024-03-29T01:18:44;95017.97;;;6.20;60.81
55263;BME280;41125;48.752;9.168;2024-03-29T01:19:16;95022.56;;;6.19;60.64
55263;BME280;41125;48.752;9.168;2024-03-29T01:19:48;95015.59;;;6.18;60.67
55263;BME280;41125;48.752;9.168;2024-03-29T01:20:20;95013.38;;;6.20;60.62
55263;BME280;41125;48.752;9.168;2024-03-29T01:20:51;95013.38;;;6.20;60.38
55263;BME280;41125;48.752;9.168;2024-03-29T01:21:23;95016.37;;;6.19;60.35
55263;BME280;41125;48.752;9.168;2024-03-29T01:21:55;95007.03;;;6.25;60.21
55263;BME280;41125;48.752;9.168;2024-03-29T01:22:26;95009.09;;;6.28;60.17
55263;BME280;41125;48.752;9.168;2024-03-29T01:22:57;95013.38;;;6.29;60.12
55263;BME280;41125;48.752;9.168;2024-03-29T01:23:29;95015.28;;;6.28;60.06
55263;BME280;41125;48.752;9.168;2024-03-29T01:24:01;95014.50;;;6.28;60.18
55263;BME280;41125;48.752;9.168;2024-03-29T01:24:36;95010.69;;;6.29;60.28
55263;BME280;41125;48.752;9.168;2024-03-29T01:25:08;95016.56;;;6.31;60.05
55263;BME280;41125;48.752;9.168;2024-03-29T01:25:42;95013.88;;;6.31;60.07
55263;BME280;41125;48.752;9.168;2024-03-29T01:26:17;95019.25;;;6.31;60.29
55263;BME280;41125;48.752;9.168;2024-03-29T01:26:48;95018.78;;;6.29;60.12
55263;BME280;41125;48.752;9.168;2024-03-29T01:27:19;95025.25;;;6.28;60.28
55263;BME280;41125;48.752;9.168;2024-03-29T01:27:50;95022.88;;;6.26;60.31
55263;BME280;41125;48.752;9.168;2024-03-29T01:28:22;95028.28;;;6.26;60.62
55263;BME280;41125;48.752;9.168;2024-03-29T01:28:54;95023.97;;;6.25;60.77
55263;BME280;41125;48.752;9.168;2024-03-29T01:29:25;95019.88;;;6.28;60.69
55263;BME280;41125;48.752;9.168;2024-03-29T01:29:57;95013.88;;;6.31;60.08
55263;BME280;41125;48.752;9.168;2024-03-29T01:30:29;95010.38;;;6.30;60.41
55263;BME280;41125;48.752;9.168;2024-03-29T01:31:05;95010.06;;;6.32;60.12
55263;BME280;41125;48.752;9.168;2024-03-29T01:31:36;95007.38;;;6.32;60.22
55263;BME280;41125;48.752;9.168;2024-03-29T01:32:08;95010.06;;;6.32;60.41
55263;BME280;41125;48.752;9.168;2024-03-29T01:32:40;95009.47;;;6.35;60.14
55263;BME280;41125;48.752;9.168;2024-03-29T01:33:11;95009.94;;;6.37;59.93
55263;BME280;41125;48.752;9.168;2024-03-29T01:33:42;95005.66;;;6.36;59.79
55263;BME280;41125;48.752;9.168;2024-03-29T01:34:13;95009.47;;;6.35;60.39
55263;BME280;41125;48.752;9.168;2024-03-29T01:34:44;95010.06;;;6.32;60.49
55263;BME280;41125;48.752;9.168;2024-03-29T01:35:16;95003.59;;;6.33;60.25
55263;BME280;41125;48.752;9.168;2024-03-29T01:35:47;95007.06;;;6.33;60.37
55263;BME280;41125;48.752;9.168;2024-03-29T01:36:22;95006.59;;;6.31;60.08
55263;BME280;41125;48.752;9.168;2024-03-29T01:36:53;95005.78;;;6.31;60.18
55263;BME280;41125;48.752;9.168;2024-03-29T01:37:24;95001.50;;;6.30;60.05
55263;BME280;41125;48.752;9.168;2024-03-29T01:37:56;95006.91;;;6.30;60.47
55263;BME280;41125;48.752;9.168;2024-03-29T01:38:28;95009.59;;;6.30;60.56
55263;BME280;41125;48.752;9.168;2024-03-29T01:38:59;94999.94;;;6.29;61.06
55263;BME280;41125;48.752;9.168;2024-03-29T01:39:32;95010.38;;;6.30;61.05
55263;BME280;41125;48.752;9.168;2024-03-29T01:40:04;95003.09;;;6.31;60.82
55263;BME280;41125;48.752;9.168;2024-03-29T01:40:35;94996.59;;;6.32;60.72
55263;BME280;41125;48.752;9.168;2024-03-29T01:41:08;94995.50;;;6.33;60.49
55263;BME280;41125;48.752;9.168;2024-03-29T01:41:39;94993.28;;;6.35;60.17
55263;BME280;41125;48.752;9.168;2024-03-29T01:42:10;94986.19;;;6.39;59.75
55263;BME280;41125;48.752;9.168;2024-03-29T01:42:45;94992.84;;;6.42;59.83
55263;BME280;41125;48.752;9.168;2024-03-29T01:43:16;94986.66;;;6.41;59.75
55263;BME280;41125;48.752;9.168;2024-03-29T01:43:48;94987.47;;;6.42;59.83
55263;BME280;41125;48.752;9.168;2024-03-29T01:44:19;94983.34;;;6.44;59.86
55263;BME280;41125;48.752;9.168;2024-03-29T01:44:50;94977.97;;;6.44;59.58
55263;BME280;41125;48.752;9.168;2024-03-29T01:45:21;94983.34;;;6.44;59.67
55263;BME280;41125;48.752;9.168;2024-03-29T01:45:53;94973.84;;;6.47;59.45
55263;BME280;41125;48.752;9.168;2024-03-29T01:46:26;94979.72;;;6.49;59.15
55263;BME280;41125;48.752;9.168;2024-03-29T01:46:58;94978.63;;;6.50;59.07
55263;BME280;41125;48.752;9.168;2024-03-29T01:47:29;94980.19;;;6.51;59.45
55263;BME280;41125;48.752;9.168;2024-03-29T01:48:01;94978.31;;;6.51;58.96
55263;BME280;41125;48.752;9.168;2024-03-29T01:48:32;94986.37;;;6.51;59.41
55263;BME280;41125;48.752;9.168;2024-03-29T01:49:04;94984.78;;;6.50;59.16
55263;BME280;41125;48.752;9.168;2024-03-29T01:49:36;94984.78;;;6.50;59.36
55263;BME280;41125;48.752;9.168;2024-03-29T01:50:09;94987.00;;;6.48;59.36
55263;BME280;41125;48.752;9.168;2024-03-29T01:50:41;94989.38;;;6.50;59.60
55263;BME280;41125;48.752;9.168;2024-03-29T01:51:14;94990.50;;;6.49;58.93
55263;BME280;41125;48.752;9.168;2024-03-29T01:51:46;94993.03;;;6.45;59.11
55263;BME280;41125;48.752;9.168;2024-03-29T01:52:18;94993.03;;;6.45;59.06
55263;BME280;41125;48.752;9.168;2024-03-29T01:52:50;94998.41;;;6.45;59.47
55263;BME280;41125;48.752;9.168;2024-03-29T01:53:22;94996.81;;;6.44;59.44
55263;BME280;41125;48.752;9.168;2024-03-29T01:53:55;95000.00;;;6.46;59.28
55263;BME280;41125;48.752;9.168;2024-03-29T01:54:27;95006.19;;;6.47;59.20
55263;BME280;41125;48.752;9.168;2024-03-29T01:54:58;95006.97;;;6.47;59.40
55263;BME280;41125;48.752;9.168;2024-03-29T01:55:29;95003.97;;;6.49;59.68
55263;BME280;41125;48.752;9.168;2024-03-29T01:56:01;95002.56;;;6.51;59.23
55263;BME280;41125;48.752;9.168;2024-03-29T01:56:35;94992.75;;;6.55;58.68
55263;BME280;41125;48.752;9.168;2024-03-29T01:57:08;94997.34;;;6.55;58.84
55263;BME280;41125;48.752;9.168;2024-03-29T01:57:40;94992.75;;;6.55;59.15
55263;BME280;41125;48.752;9.168;2024-03-29T01:58:13;94995.44;;;6.55;58.94
55263;BME280;41125;48.752;9.168;2024-03-29T01:58:46;94996.53;;;6.54;58.99
55263;BME280;41125;48.752;9.168;2024-03-29T01:59:19;95000.34;;;6.53;58.97
55263;BME280;41125;48.752;9.168;2024-03-29T01:59:51;95000.03;;;6.55;59.09
55263;BME280;41125;48.752;9.168;2024-03-29T02:00:23;94997.03;;;6.56;58.74
55263;BME280;41125;48.752;9.168;2024-03-29T02:00:57;94988.63;;;6.58;58.89
55263;BME280;41125;48.752;9.168;2024-03-29T02:01:30;94993.53;;;6.56;59.14
55263;BME280;41125;48.752;9.168;2024-03-29T02:02:02;94994.63;;;6.55;59.55
55263;BME280;41125;48.752;9.168;2024-03-29T02:02:34;94994.31;;;6.56;59.45
55263;BME280;41125;48.752;9.168;2024-03-29T02:03:06;94994.81;;;6.58;58.91
55263;BME280;41125;48.752;9.168;2024-03-29T02:03:45;94999.22;;;6.63;58.96
55263;BME280;41125;48.752;9.168;2024-03-29T02:04:18;94997.34;;;6.63;58.22
55263;BME280;41125;48.752;9.168;2024-03-29T02:04:50;95000.03;;;6.63;58.68
55263;BME280;41125;48.752;9.168;2024-03-29T02:05:24;95000.03;;;6.63;58.65
55263;BME280;41125;48.752;9.168;2024-03-29T02:05:57;95003.84;;;6.62;59.01
55263;BME280;41125;48.752;9.168;2024-03-29T02:06:31;94997.16;;;6.60;59.05
55263;BME280;41125;48.752;9.168;2024-03-29T02:07:03;94992.87;;;6.59;59.19
55263;BME280;41125;48.752;9.168;2024-03-29T02:07:35;94994.31;;;6.56;59.42
55263;BME280;41125;48.752;9.168;2024-03-29T02:08:11;94995.44;;;6.55;59.47
55263;BME280;41125;48.752;9.168;2024-03-29T02:08:43;94994.31;;;6.56;59.23
55263;BME280;41125;48.752;9.168;2024-03-29T02:09:14;94995.75;;;6.54;59.74
55263;BME280;41125;48.752;9.168;2024-03-29T02:09:46;95002.56;;;6.51;59.44
55263;BME280;41125;48.752;9.168;2024-03-29T02:10:17;94995.56;;;6.50;59.34
55263;BME280;41125;48.752;9.168;2024-03-29T02:10:52;94995.56;;;6.50;59.77
55263;BME280;41125;48.752;9.168;2024-03-29T02:11:23;94993.19;;;6.49;60.07
55263;BME280;41125;48.752;9.168;2024-03-29T02:11:55;94996.53;;;6.54;59.24
55263;BME280;41125;48.752;9.168;2024-03-29T02:12:29;94988.47;;;6.54;59.21
55263;BME280;41125;48.752;9.168;2024-03-29T02:13:07;94996.06;;;6.52;59.07
55263;BME280;41125;48.752;9.168;2024-03-29T02:13:39;94995.56;;;6.50;59.35
55263;BME280;41125;48.752;9.168;2024-03-29T02:14:11;95006.03;;;6.52;59.82
55263;BME280;41125;48.752;9.168;2024-03-29T02:14:42;95007.94;;;6.51;59.86
55263;BME280;41125;48.752;9.168;2024-03-29T02:15:16;94999.38;;;6.49;59.90
55263;BME280;41125;48.752;9.168;2024-03-29T02:15:47;94997.78;;;6.48;59.95
55263;BME280;41125;48.752;9.168;2024-03-29T02:16:19;94997.78;;;6.48;60.02
55263;BME280;41125;48.752;9.168;2024-03-29T02:16:50;95008.56;;;6.48;59.89
55263;BME280;41125;48.752;9.168;2024-03-29T02:17:22;94997.78;;;6.48;60.07
55263;BME280;41125;48.752;9.168;2024-03-29T02:17:54;95004.75;;;6.49;59.74
55263;BME280;41125;48.752;9.168;2024-03-29T02:18:26;94998.75;;;6.52;59.16
55263;BME280;41125;48.752;9.168;2024-03-29T02:18:57;94999.53;;;6.53;59.26
55263;BME280;41125;48.752;9.168;2024-03-29T02:19:31;95001.44;;;6.52;59.32
55263;BME280;41125;48.752;9.168;2024-03-29T02:20:04;94996.06;;;6.52;59.53
55263;BME280;41125;48.752;9.168;2024-03-29T02:20:36;95005.25;;;6.51;59.70
55263;BME280;41125;48.752;9.168;2024-03-29T02:21:09;95000.34;;;6.53;59.52
55263;BME280;41125;48.752;9.168;2024-03-29T02:21:44;94997.16;;;6.51;59.53
55263;BME280;41125;48.752;9.168;2024-03-29T02:22:20;94995.56;;;6.50;59.52
55263;BME280;41125;48.752;9.168;2024-03-29T02:23:14;94991.16;;;6.54;59.21
55263;BME280;41125;48.752;9.168;2024-03-29T02:23:56;94996.53;;;6.54;59.21
55263;BME280;41125;48.752;9.168;2024-03-29T02:24:28;94990.03;;;6.55;59.28
55263;BME280;41125;48.752;9.168;2024-03-29T02:25:00;94994.94;;;6.53;59.64
55263;BME280;41125;48.752;9.168;2024-03-29T02:25:32;94987.19;;;6.52;59.22
55263;BME280;41125;48.752;9.168;2024-03-29T02:26:04;94984.00;;;6.50;60.21
55263;BME280;41125;48.752;9.168;2024-03-29T02:26:36;94982.25;;;6.45;60.32
55263;BME280;41125;48.752;9.168;2024-03-29T02:27:12;94979.84;;;6.44;60.24
55263;BME280;41125;48.752;9.168;2024-03-29T02:27:45;94987.16;;;6.43;60.04
55263;BME280;41125;48.752;9.168;2024-03-29T02:28:16;94986.84;;;6.45;59.86
55263;BME280;41125;48.752;9.168;2024-03-29T02:28:48;94980.66;;;6.44;59.78
55263;BME280;41125;48.752;9.168;2024-03-29T02:29:19;94986.84;;;6.45;59.87
55263;BME280;41125;48.752;9.168;2024-03-29T02:29:50;94983.84;;;6.46;60.27
55263;BME280;41125;48.752;9.168;2024-03-29T02:30:22;94988.91;;;6.48;60.07
55263;BME280;41125;48.752;9.168;2024-03-29T02:30:53;94985.09;;;6.49;60.10
55263;BME280;41125;48.752;9.168;2024-03-29T02:31:25;94995.56;;;6.50;59.98
55263;BME280;41125;48.752;9.168;2024-03-29T02:31:56;94997.78;;;6.48;60.12
55263;BME280;41125;48.752;9.168;2024-03-29T02:32:27;94995.88;;;6.49;60.08
55263;BME280;41125;48.752;9.168;2024-03-29T02:32:59;94980.81;;;6.48;59.98
55263;BME280;41125;48.752;9.168;2024-03-29T02:33:31;94985.41;;;6.47;60.03
55263;BME280;41125;48.752;9.168;2024-03-29T02:34:03;94979.53;;;6.45;60.03
55263;BME280;41125;48.752;9.168;2024-03-29T02:34:34;94976.84;;;6.45;59.93
55263;BME280;41125;48.752;9.168;2024-03-29T02:35:06;94975.25;;;6.44;59.84
55263;BME280;41125;48.752;9.168;2024-03-29T02:35:37;94981.75;;;6.43;60.26
55263;BME280;41125;48.752;9.168;2024-03-29T02:36:08;94985.25;;;6.44;60.18
55263;BME280;41125;48.752;9.168;2024-03-29T02:36:40;94989.84;;;6.43;60.33
55263;BME280;41125;48.752;9.168;2024-03-29T02:37:13;94987.63;;;6.45;60.32
55263;BME280;41125;48.752;9.168;2024-03-29T02:37:47;94985.25;;;6.44;60.43
55263;BME280;41125;48.752;9.168;2024-03-29T02:38:18;94989.84;;;6.43;60.58
55263;BME280;41125;48.752;9.168;2024-03-29T02:38:49;94990.62;;;6.44;60.32
55263;BME280;41125;48.752;9.168;2024-03-29T02:39:21;94985.56;;;6.42;60.29
55263;BME280;41125;48.752;9.168;2024-03-29T02:39:52;94981.75;;;6.43;60.16
55263;BME280;41125;48.752;9.168;2024-03-29T02:40:23;94983.34;;;6.44;60.02
55263;BME280;41125;48.752;9.168;2024-03-29T02:40:54;94982.25;;;6.45;60.00
55263;BME280;41125;48.752;9.168;2024-03-29T02:41:25;94971.47;;;6.45;60.02
55263;BME280;41125;48.752;9.168;2024-03-29T02:41:57;94970.84;;;6.48;60.10
55263;BME280;41125;48.752;9.168;2024-03-29T02:42:28;94968.16;;;6.48;60.12
55263;BME280;41125;48.752;9.168;2024-03-29T02:42:59;94960.06;;;6.48;59.95
55263;BME280;41125;48.752;9.168;2024-03-29T02:43:31;94967.03;;;6.49;60.12
55263;BME280;41125;48.752;9.168;2024-03-29T02:44:02;94964.34;;;6.49;60.11
55263;BME280;41125;48.752;9.168;2024-03-29T02:44:33;94963.56;;;6.49;60.02
55263;BME280;41125;48.752;9.168;2024-03-29T02:45:06;94958.97;;;6.49;60.07
55263;BME280;41125;48.752;9.168;2024-03-29T02:45:37;94958.97;;;6.49;60.19
55263;BME280;41125;48.752;9.168;2024-03-29T02:46:09;94952.47;;;6.50;60.07
55263;BME280;41125;48.752;9.168;2024-03-29T02:46:40;94957.84;;;6.50;60.35
55263;BME280;41125;48.752;9.168;2024-03-29T02:47:11;94961.66;;;6.49;60.24
55263;BME280;41125;48.752;9.168;2024-03-29T02:47:43;94970.06;;;6.48;60.55
55263;BME280;41125;48.752;9.168;2024-03-29T02:48:14;94963.06;;;6.47;60.50
55263;BME280;41125;48.752;9.168;2024-03-29T02:48:46;94968.47;;;6.47;60.32
55263;BME280;41125;48.752;9.168;2024-03-29T02:49:17;94960.69;;;6.45;60.31
55263;BME280;41125;48.752;9.168;2024-03-29T02:49:48;94964.34;;;6.49;60.26
55263;BME280;41125;48.752;9.168;2024-03-29T02:50:19;94967.53;;;6.51;60.34
55263;BME280;41125;48.752;9.168;2024-03-29T02:50:51;94969.44;;;6.51;60.55
55263;BME280;41125;48.752;9.168;2024-03-29T02:51:22;94961.66;;;6.49;60.34
55263;BME280;41125;48.752;9.168;2024-03-29T02:51:53;94966.25;;;6.49;59.95